Time;durP1;ratioP1;P1;durP2;ratioP2;P2;SDS_P1;SDS_P2;PMS_P1;PMS_P2;Temp;Humidity;BMP_temperature;BMP_pressure;BME280_temperature;BME280_humidity;BME280_pressure;Samples;Min_cycle;Max_cycle;Signal;HPM_P1;HPM_P2
2021/10/11 00:01:13;;;;;;;28.32;16.05;;;;;;;2.67;87.93;102005.24;1750299;82;21407;-52
2021/10/11 00:03:39;;;;;;;30.52;14.45;;;;;;;2.59;88.20;101999.82;1750085;82;20925;-52
2021/10/11 00:06:05;;;;;;;32.83;15.20;;;;;;;2.53;88.47;101999.16;1747942;81;22379;-52
2021/10/11 00:08:32;;;;;;;32.42;15.90;;;;;;;2.47;88.84;102003.16;1736125;82;20989;-52
2021/10/11 00:11:00;;;;;;;35.10;16.70;;;;;;;2.41;89.18;101997.42;1736210;82;20980;-52
2021/10/11 00:13:28;;;;;;;50.95;16.57;;;;;;;2.34;89.47;101991.56;1736136;82;20909;-51
2021/10/11 00:15:54;;;;;;;64.70;16.27;;;;;;;2.27;89.76;101993.88;1736451;82;20898;-52
2021/10/11 00:18:23;;;;;;;56.30;17.37;;;;;;;2.22;90.03;101996.66;1736032;82;20929;-52
2021/10/11 00:20:49;;;;;;;52.17;16.00;;;;;;;2.17;90.39;101991.78;1736343;82;20981;-51
2021/10/11 00:23:17;;;;;;;54.53;17.40;;;;;;;2.13;90.61;101988.60;1715452;82;21491;-52
2021/10/11 00:25:45;;;;;;;47.73;15.90;;;;;;;2.08;90.64;101983.72;1736054;82;21408;-53
2021/10/11 00:28:12;;;;;;;34.18;14.98;;;;;;;2.01;90.64;101988.58;1736203;82;20925;-52
2021/10/11 00:30:38;;;;;;;36.70;15.35;;;;;;;1.95;90.62;101982.34;1736449;82;21158;-52
2021/10/11 00:33:05;;;;;;;30.60;14.25;;;;;;;1.88;90.73;101980.34;1736093;82;20958;-52
2021/10/11 00:35:33;;;;;;;35.30;16.30;;;;;;;1.81;90.91;101981.38;1736313;82;21539;-52
2021/10/11 00:37:59;;;;;;;37.60;16.23;;;;;;;1.76;91.28;101984.53;1735935;81;21019;-52
2021/10/11 00:40:26;;;;;;;28.62;15.78;;;;;;;1.69;91.46;101979.17;1736418;82;20913;-52
2021/10/11 00:42:52;;;;;;;33.10;15.75;;;;;;;1.64;91.63;101984.49;1715361;82;21791;-52
2021/10/11 00:45:19;;;;;;;32.80;15.13;;;;;;;1.58;91.75;101973.99;1736010;82;20886;-52
2021/10/11 00:47:45;;;;;;;33.20;16.02;;;;;;;1.51;91.86;101977.09;1736137;82;20992;-51
2021/10/11 00:50:12;;;;;;;29.12;15.70;;;;;;;1.44;91.95;101972.13;1736099;82;20984;-52
2021/10/11 00:52:38;;;;;;;30.70;15.35;;;;;;;1.37;92.19;101973.53;1715129;82;20996;-52
2021/10/11 00:55:06;;;;;;;28.83;14.63;;;;;;;1.33;92.37;101972.07;1736291;82;21776;-52
2021/10/11 00:57:33;;;;;;;36.53;15.45;;;;;;;1.26;92.56;101968.38;1736025;82;20993;-52
2021/10/11 00:59:59;;;;;;;33.50;14.83;;;;;;;1.23;92.78;101968.23;1736367;81;20901;-52
2021/10/11 01:02:25;;;;;;;32.78;15.65;;;;;;;1.19;93.06;101968.91;1736392;81;20898;-52
2021/10/11 01:04:51;;;;;;;50.20;16.25;;;;;;;1.13;93.35;101970.78;1736211;82;21086;-52
2021/10/11 01:07:18;;;;;;;30.27;15.15;;;;;;;1.10;93.48;101966.81;1743055;82;21270;-52
2021/10/11 01:09:45;;;;;;;33.25;14.23;;;;;;;1.07;93.71;101967.54;1750034;82;20889;-52
2021/10/11 01:12:11;;;;;;;41.05;15.55;;;;;;;1.04;93.92;101957.20;1750002;82;20884;-51
2021/10/11 01:14:38;;;;;;;44.90;15.08;;;;;;;1.02;94.21;101964.34;1750137;82;20901;-51
2021/10/11 01:17:04;;;;;;;33.33;14.80;;;;;;;0.98;94.39;101956.52;1750437;81;20873;-51
2021/10/11 01:19:31;;;;;;;24.95;15.15;;;;;;;0.95;94.52;101958.94;1750068;82;21124;-52
2021/10/11 01:21:58;;;;;;;28.07;13.83;;;;;;;0.91;94.72;101954.92;1749949;82;20929;-52
2021/10/11 01:24:24;;;;;;;32.80;15.23;;;;;;;0.89;95.06;101952.70;1750086;82;20838;-52
2021/10/11 01:26:50;;;;;;;35.63;15.28;;;;;;;0.86;95.24;101955.98;1749952;82;21462;-51
2021/10/11 01:29:17;;;;;;;29.55;15.03;;;;;;;0.83;95.30;101950.74;1750049;82;21351;-52
2021/10/11 01:31:44;;;;;;;30.00;15.18;;;;;;;0.79;95.37;101950.99;1750163;81;20997;-52
2021/10/11 01:34:11;;;;;;;32.30;14.60;;;;;;;0.75;95.48;101945.28;1749919;82;20972;-51
2021/10/11 01:36:37;;;;;;;33.20;15.08;;;;;;;0.69;95.65;101936.95;1749863;82;20909;-52
2021/10/11 01:39:06;;;;;;;29.75;13.62;;;;;;;0.69;95.90;101933.12;1749960;82;21406;-52
2021/10/11 01:41:33;;;;;;;24.50;14.30;;;;;;;0.69;96.04;101932.27;1722697;82;20967;-52
2021/10/11 01:43:59;;;;;;;25.20;14.40;;;;;;;0.66;96.21;101936.81;1739317;81;21774;-52
2021/10/11 01:46:26;;;;;;;38.25;14.83;;;;;;;0.66;96.46;101933.41;1750263;82;21553;-51
2021/10/11 01:48:52;;;;;;;30.65;14.43;;;;;;;0.64;96.68;101923.55;1749977;82;20948;-52
2021/10/11 01:51:19;;;;;;;35.83;14.35;;;;;;;0.68;96.92;101926.70;1722569;82;20936;-52
2021/10/11 01:53:46;;;;;;;26.15;13.53;;;;;;;0.68;97.00;101922.45;1750120;82;20826;-52
2021/10/11 01:56:12;;;;;;;29.07;14.73;;;;;;;0.66;97.11;101919.39;1750358;82;21462;-52
2021/10/11 01:58:39;;;;;;;35.85;15.65;;;;;;;0.62;97.03;101921.30;1749966;82;20928;-52
2021/10/11 02:01:06;;;;;;;27.50;14.53;;;;;;;0.57;97.13;101918.55;1749993;81;20838;-52
2021/10/11 02:03:32;;;;;;;32.75;14.40;;;;;;;0.55;97.20;101920.16;1750031;82;20932;-52
2021/10/11 02:05:59;;;;;;;27.42;14.28;;;;;;;0.51;97.25;101915.31;1750032;82;20941;-52
2021/10/11 02:08:25;;;;;;;32.55;13.90;;;;;;;0.46;97.36;101918.05;1738459;81;21145;-52
2021/10/11 02:10:52;;;;;;;29.37;14.58;;;;;;;0.42;97.50;101914.48;1735981;82;20921;-52
2021/10/11 02:13:19;;;;;;;34.40;15.40;;;;;;;0.41;97.68;101916.56;1736063;82;20988;-52
2021/10/11 02:15:45;;;;;;;31.70;13.62;;;;;;;0.39;97.72;101917.30;1735893;82;21004;-52
2021/10/11 02:18:11;;;;;;;36.38;15.65;;;;;;;0.35;97.75;101911.56;1715342;82;20941;-52
2021/10/11 02:20:38;;;;;;;25.97;15.30;;;;;;;0.31;97.79;101914.78;1736071;81;22395;-52
2021/10/11 02:23:05;;;;;;;27.73;13.98;;;;;;;0.27;97.91;101912.50;1735885;82;20882;-52
2021/10/11 02:25:33;;;;;;;29.67;14.15;;;;;;;0.24;97.95;101908.52;1715289;82;20886;-52
2021/10/11 02:27:59;;;;;;;30.97;14.78;;;;;;;0.22;98.01;101913.55;1736209;82;20941;-52
2021/10/11 02:30:26;;;;;;;33.75;15.28;;;;;;;0.23;98.27;101911.48;1735985;82;20964;-52
2021/10/11 02:32:52;;;;;;;66.85;16.30;;;;;;;0.21;98.37;101902.89;1736222;82;21141;-52
2021/10/11 02:35:20;;;;;;;53.08;14.78;;;;;;;0.22;98.45;101903.75;1736147;82;20886;-52
2021/10/11 02:37:47;;;;;;;36.42;14.70;;;;;;;0.22;98.54;101904.64;1736047;82;20949;-52
2021/10/11 02:40:14;;;;;;;48.40;15.03;;;;;;;0.21;98.55;101901.62;1736007;82;20940;-51
2021/10/11 02:42:42;;;;;;;36.33;14.20;;;;;;;0.18;98.61;101904.02;1715340;82;20973;-52
2021/10/11 02:45:09;;;;;;;40.40;15.18;;;;;;;0.15;98.66;101901.33;1736055;82;21047;-52
2021/10/11 02:47:36;;;;;;;39.33;14.73;;;;;;;0.10;98.61;101901.49;1736016;82;21012;-51
2021/10/11 02:50:05;;;;;;;49.75;16.67;;;;;;;0.06;98.56;101899.22;1736195;82;20981;-52
2021/10/11 02:52:34;;;;;;;47.98;13.98;;;;;;;0.02;98.61;101900.27;1715683;82;20882;-51
2021/10/11 02:55:01;;;;;;;46.80;16.02;;;;;;;-0.04;98.67;101900.45;1715039;82;20969;-52
2021/10/11 02:57:28;;;;;;;56.45;16.90;;;;;;;-0.06;98.81;101896.95;1735833;82;21076;-51
2021/10/11 02:59:54;;;;;;;245.40;25.32;;;;;;;-0.05;99.03;101895.27;1735771;81;20925;-51
2021/10/11 03:02:21;;;;;;;81.17;17.30;;;;;;;-0.06;99.26;101896.95;1736010;82;21008;-52
2021/10/11 03:04:49;;;;;;;99.80;19.30;;;;;;;-0.04;99.57;101890.26;1735946;82;20980;-51
2021/10/11 03:07:18;;;;;;;96.78;16.67;;;;;;;-0.05;99.61;101884.70;1738989;82;21351;-52
2021/10/11 03:09:45;;;;;;;63.80;16.77;;;;;;;-0.08;99.47;101882.01;1749643;82;21856;-52
2021/10/11 03:12:12;;;;;;;68.92;17.20;;;;;;;-0.11;99.44;101887.34;1749922;82;21442;-51
2021/10/11 03:14:38;;;;;;;100.55;17.62;;;;;;;-0.16;99.52;101879.08;1750021;82;21414;-52
2021/10/11 03:17:05;;;;;;;83.10;16.62;;;;;;;-0.19;99.57;101875.50;1749975;82;21597;-53
2021/10/11 03:19:31;;;;;;;65.62;17.98;;;;;;;-0.21;99.63;101870.36;1749919;82;21518;-52
2021/10/11 03:21:58;;;;;;;72.58;18.37;;;;;;;-0.21;99.87;101874.17;1750013;82;21438;-51
2021/10/11 03:24:25;;;;;;;85.60;18.05;;;;;;;-0.18;100.00;101872.16;1750040;82;20972;-52
2021/10/11 03:26:51;;;;;;;109.63;17.62;;;;;;;-0.18;100.00;101866.69;1749973;82;20932;-51
2021/10/11 03:29:18;;;;;;;81.35;17.48;;;;;;;-0.16;100.00;101870.56;1750011;82;20952;-52
2021/10/11 03:31:44;;;;;;;92.22;17.82;;;;;;;-0.20;100.00;101862.30;1750215;82;20833;-52
2021/10/11 03:34:12;;;;;;;80.05;16.70;;;;;;;-0.20;100.00;101854.28;1750099;82;21125;-52
2021/10/11 03:36:42;;;;;;;79.03;17.17;;;;;;;-0.22;100.00;101855.88;1750034;82;21632;-51
2021/10/11 03:39:09;;;;;;;67.12;16.12;;;;;;;-0.24;100.00;101857.48;1750111;81;20991;-51
2021/10/11 03:41:35;;;;;;;37.03;14.85;;;;;;;-0.27;100.00;101857.73;1750023;82;21023;-51
2021/10/11 03:44:05;;;;;;;41.13;15.15;;;;;;;-0.34;100.00;101857.81;1750319;82;20964;-52
2021/10/11 03:46:30;;;;;;;39.25;15.13;;;;;;;-0.37;100.00;101859.83;1749911;81;21165;-52
2021/10/11 03:48:57;;;;;;;45.60;14.47;;;;;;;-0.39;100.00;101860.13;1750115;82;20944;-51
2021/10/11 03:51:24;;;;;;;56.28;15.93;;;;;;;-0.42;100.00;101858.70;1750138;82;20924;-51
2021/10/11 03:53:50;;;;;;;40.15;15.55;;;;;;;-0.45;100.00;101861.11;1750317;82;20999;-52
2021/10/11 03:56:17;;;;;;;37.20;13.70;;;;;;;-0.47;100.00;101853.80;1750089;82;20901;-51
2021/10/11 03:58:43;;;;;;;47.20;13.55;;;;;;;-0.49;100.00;101852.47;1750294;82;21972;-52
2021/10/11 04:01:09;;;;;;;44.95;15.18;;;;;;;-0.53;100.00;101853.09;1750098;82;20980;-51
2021/10/11 04:03:36;;;;;;;30.77;14.40;;;;;;;-0.56;100.00;101850.39;1750251;82;20884;-52
2021/10/11 04:06:02;;;;;;;52.80;14.33;;;;;;;-0.57;100.00;101845.25;1749860;82;20956;-51
2021/10/11 04:08:37;;;;;;;39.13;14.05;;;;;;;-0.57;100.00;101845.25;1741638;81;20913;-52
2021/10/11 04:11:22;;;;;;;32.20;14.58;;;;;;;-0.60;100.00;101838.33;1736112;82;21823;-52
2021/10/11 04:13:41;;;;;;;44.95;14.53;;;;;;;-0.61;100.00;101841.67;1734689;82;20893;-52
2021/10/11 04:16:07;;;;;;;47.43;15.40;;;;;;;-0.63;100.00;101839.06;1736393;82;20905;-52
2021/10/11 04:18:34;;;;;;;40.25;15.50;;;;;;;-0.63;100.00;101837.80;1736087;82;20937;-51
2021/10/11 04:21:01;;;;;;;47.75;22.37;;;;;;;-0.65;100.00;101832.14;1736560;82;20941;-51
2021/10/11 04:23:27;;;;;;;50.20;27.77;;;;;;;-0.68;100.00;101826.49;1736149;82;21124;-51
2021/10/11 04:25:54;;;;;;;47.88;20.00;;;;;;;-0.68;100.00;101826.49;1736335;81;20873;-51
2021/10/11 04:28:20;;;;;;;43.15;20.72;;;;;;;-0.65;100.00;101822.83;1714989;82;21473;-52
2021/10/11 04:30:47;;;;;;;57.00;21.15;;;;;;;-0.62;100.00;101821.73;1736081;82;21447;-52
2021/10/11 04:33:14;;;;;;;51.73;21.93;;;;;;;-0.61;100.00;101832.38;1736451;82;21432;-52
2021/10/11 04:35:41;;;;;;;42.58;19.45;;;;;;;-0.62;100.00;101834.45;1736262;82;21971;-52
2021/10/11 04:38:07;;;;;;;43.83;19.90;;;;;;;-0.58;100.00;101830.37;1736096;82;21515;-52
2021/10/11 04:40:35;;;;;;;56.10;20.48;;;;;;;-0.52;100.00;101834.48;1736220;82;21005;-51
2021/10/11 04:43:02;;;;;;;178.35;95.25;;;;;;;-0.42;100.00;101829.45;1736028;82;21519;-52
2021/10/11 04:45:29;;;;;;;90.40;46.73;;;;;;;-0.29;100.00;101829.64;1736334;82;21409;-51
2021/10/11 04:47:58;;;;;;;71.28;27.22;;;;;;;-0.13;100.00;101831.66;1736216;81;21090;-52
2021/10/11 04:50:27;;;;;;;44.13;18.05;;;;;;;0.01;100.00;101828.11;1735678;82;21667;-52
2021/10/11 04:52:54;;;;;;;130.20;50.08;;;;;;;0.17;100.00;101831.34;1713962;82;20873;-52
2021/10/11 04:55:21;;;;;;;67.72;24.30;;;;;;;0.27;100.00;101828.02;1736031;82;21079;-52
2021/10/11 04:57:48;;;;;;;94.47;31.12;;;;;;;0.36;100.00;101830.51;1736346;82;21487;-52
2021/10/11 05:00:16;;;;;;;111.10;45.35;;;;;;;0.45;100.00;101827.13;1736149;82;22333;-52
2021/10/11 05:02:42;;;;;;;83.20;33.60;;;;;;;0.58;100.00;101827.27;1736166;82;20977;-52
2021/10/11 05:05:09;;;;;;;46.68;23.20;;;;;;;0.70;100.00;101824.40;1736387;82;20976;-51
2021/10/11 05:07:35;;;;;;;62.78;20.75;;;;;;;0.79;100.00;101824.80;1737418;81;20901;-52
2021/10/11 05:10:04;;;;;;;57.20;25.35;;;;;;;0.91;100.00;101822.33;1749896;81;20917;-52
2021/10/11 05:12:30;;;;;;;79.32;23.27;;;;;;;1.00;100.00;101824.84;1750074;81;21087;-52
2021/10/11 05:14:58;;;;;;;45.48;23.67;;;;;;;1.10;100.00;101829.08;1749916;82;20984;-51
2021/10/11 05:17:25;;;;;;;44.83;22.15;;;;;;;1.18;100.00;101825.16;1750088;82;21006;-52
2021/10/11 05:19:51;;;;;;;44.88;20.65;;;;;;;1.28;100.00;101830.25;1750170;80;21509;-51
2021/10/11 05:22:18;;;;;;;44.58;20.70;;;;;;;1.36;100.00;101823.77;1750338;82;21383;-52
2021/10/11 05:24:45;;;;;;;32.20;15.78;;;;;;;1.48;100.00;101830.21;1750481;81;21124;-52
2021/10/11 05:27:12;;;;;;;31.90;14.95;;;;;;;1.58;100.00;101827.21;1749811;82;20900;-51
2021/10/11 05:29:38;;;;;;;38.02;15.00;;;;;;;1.72;100.00;101826.48;1750498;82;21246;-52
2021/10/11 05:32:06;;;;;;;41.95;17.10;;;;;;;1.88;100.00;101821.58;1750080;82;20921;-52
2021/10/11 05:34:33;;;;;;;29.25;16.30;;;;;;;1.99;100.00;101816.50;1722638;82;21027;-52
2021/10/11 05:37:00;;;;;;;31.95;15.45;;;;;;;2.12;100.00;101818.23;1722306;82;21182;-52
2021/10/11 05:39:26;;;;;;;34.23;15.30;;;;;;;2.24;100.00;101811.05;1749946;82;20853;-51
2021/10/11 05:41:52;;;;;;;30.32;14.00;;;;;;;2.38;100.00;101806.84;1750077;82;20979;-52
2021/10/11 05:44:19;;;;;;;32.58;14.68;;;;;;;2.53;100.00;101804.86;1750043;82;20967;-52
2021/10/11 05:46:47;;;;;;;36.48;15.48;;;;;;;2.69;100.00;101801.59;1750110;82;20897;-52
2021/10/11 05:49:14;;;;;;;31.65;17.65;;;;;;;2.86;100.00;101800.48;1722381;82;21003;-52
2021/10/11 05:51:40;;;;;;;35.85;16.80;;;;;;;3.03;100.00;101801.48;1750238;82;20959;-51
2021/10/11 05:54:06;;;;;;;44.03;16.42;;;;;;;3.21;100.00;101793.97;1749970;82;20909;-52
2021/10/11 05:56:33;;;;;;;28.92;13.85;;;;;;;3.37;100.00;101792.78;1750040;82;20987;-51
2021/10/11 05:59:02;;;;;;;31.62;14.15;;;;;;;3.54;100.00;101790.77;1750105;82;21010;-52
2021/10/11 06:01:28;;;;;;;44.98;14.55;;;;;;;3.76;100.00;101792.30;1750183;81;21070;-52
2021/10/11 06:03:54;;;;;;;26.90;14.80;;;;;;;3.98;100.00;101796.80;1722509;82;20956;-52
2021/10/11 06:06:20;;;;;;;43.00;17.70;;;;;;;4.14;100.00;101796.45;1750124;82;20944;-52
2021/10/11 06:08:47;;;;;;;38.02;17.95;;;;;;;4.53;97.60;101787.70;1743571;81;20941;-52
2021/10/11 06:11:17;;;;;;;30.17;13.72;;;;;;;4.53;97.60;101787.70;1736000;82;20889;-52
2021/10/11 06:13:44;;;;;;;31.10;13.38;;;;;;;4.70;96.03;101785.19;1713927;82;21155;-51
2021/10/11 06:16:13;;;;;;;27.45;14.03;;;;;;;4.89;93.77;101791.67;1735975;82;20881;-52
2021/10/11 06:18:40;;;;;;;32.35;14.63;;;;;;;5.28;91.85;101782.82;1713857;82;20945;-52
2021/10/11 06:21:07;;;;;;;37.60;14.20;;;;;;;5.28;91.85;101782.82;1736128;81;20929;-52
2021/10/11 06:23:33;;;;;;;36.35;15.55;;;;;;;5.43;89.74;101777.19;1736052;81;20972;-52
2021/10/11 06:26:00;;;;;;;31.37;14.35;;;;;;;5.63;88.50;101781.50;1736203;82;21134;-52
2021/10/11 06:28:27;;;;;;;29.02;12.65;;;;;;;5.84;87.69;101778.58;1736060;82;20961;-53
2021/10/11 06:30:53;;;;;;;24.75;11.45;;;;;;;6.07;85.58;101768.36;1735950;82;21435;-52
2021/10/11 06:33:21;;;;;;;28.38;10.82;;;;;;;6.32;80.16;101758.19;1736096;82;21475;-53
2021/10/11 06:35:49;;;;;;;24.87;10.98;;;;;;;6.69;77.56;101757.99;1736146;82;20981;-53
2021/10/11 06:38:16;;;;;;;29.25;11.20;;;;;;;7.00;71.23;101750.84;1736397;82;21216;-53
2021/10/11 06:40:50;;;;;;;28.98;10.35;;;;;;;7.23;70.86;101745.21;1735890;82;21015;-52
2021/10/11 06:43:16;;;;;;;30.65;11.50;;;;;;;7.40;70.09;101747.61;1735922;81;21418;-51
2021/10/11 06:45:43;;;;;;;32.00;11.35;;;;;;;7.58;69.57;101749.63;1735912;82;20889;-52
2021/10/11 06:48:09;;;;;;;29.42;11.28;;;;;;;7.73;67.96;101743.81;1736268;82;20897;-52
2021/10/11 07:02:44;;;;;;;36.73;10.32;;;;;;;9.05;61.85;101747.02;1871421;76;22607;-48
2021/10/11 07:05:11;;;;;;;36.10;11.60;;;;;;;9.18;60.62;101748.84;1827566;78;21414;-49
2021/10/11 07:07:39;;;;;;;27.02;11.65;;;;;;;9.30;59.03;101753.68;1827548;78;21124;-48
2021/10/11 07:10:08;;;;;;;29.90;10.53;;;;;;;9.35;59.81;101749.41;1827407;78;21807;-48
2021/10/11 07:12:35;;;;;;;24.37;10.65;;;;;;;9.46;59.48;101743.88;1827907;78;20912;-48
2021/10/11 07:15:02;;;;;;;24.55;11.40;;;;;;;9.58;58.67;101744.83;1807126;78;20880;-48
2021/10/11 07:17:28;;;;;;;31.90;11.88;;;;;;;9.70;59.13;101738.42;1807114;78;20967;-49
2021/10/11 07:19:55;;;;;;;27.45;11.22;;;;;;;9.83;57.79;101738.05;1827623;78;21943;-49
2021/10/11 07:22:21;;;;;;;25.48;13.60;;;;;;;9.94;57.82;101734.23;1827688;78;21497;-48
2021/10/11 07:24:48;;;;;;;27.75;11.73;;;;;;;10.07;57.81;101735.15;1827610;78;20936;-47
2021/10/11 07:27:14;;;;;;;34.13;16.50;;;;;;;10.21;57.95;101728.73;1827762;78;20947;-48
2021/10/11 07:29:41;;;;;;;38.30;12.40;;;;;;;10.35;57.16;101727.48;1827646;78;20884;-46
2021/10/11 07:32:08;;;;;;;25.72;10.85;;;;;;;10.50;56.10;101724.13;1827813;77;21087;-49
2021/10/11 07:34:35;;;;;;;30.32;12.95;;;;;;;10.65;55.58;101725.88;1827398;78;20876;-49
2021/10/11 07:37:01;;;;;;;35.88;12.43;;;;;;;10.76;54.77;101724.15;1827993;78;20911;-48
2021/10/11 07:39:28;;;;;;;30.45;11.73;;;;;;;10.86;54.20;101723.73;1827527;78;20896;-50
2021/10/11 07:41:54;;;;;;;28.55;11.95;;;;;;;10.95;53.73;101724.17;1827466;78;20884;-50
2021/10/11 07:44:21;;;;;;;34.13;12.55;;;;;;;11.03;52.96;101717.25;1827488;78;21204;-48
2021/10/11 07:46:52;;;;;;;36.33;12.33;;;;;;;11.13;52.34;101709.49;1827346;78;20928;-48
2021/10/11 07:49:16;;;;;;;26.68;11.18;;;;;;;11.21;52.07;101711.63;1827526;78;21470;-48
2021/10/11 07:51:42;;;;;;;25.82;11.65;;;;;;;11.31;51.50;101711.19;1820491;78;21306;-48
2021/10/11 07:54:09;;;;;;;31.27;10.95;;;;;;;11.40;50.63;101708.57;1786511;79;21374;-47
2021/10/11 07:56:37;;;;;;;21.90;9.73;;;;;;;11.50;50.62;101699.05;1818277;79;21381;-48
2021/10/11 07:59:04;;;;;;;25.17;9.88;;;;;;;11.66;50.73;101698.56;1818325;78;20955;-49
2021/10/11 08:01:30;;;;;;;26.23;9.13;;;;;;;11.87;50.01;101696.77;1786503;79;20884;-51
2021/10/11 08:03:57;;;;;;;27.82;8.85;;;;;;;12.07;49.63;101698.00;1818329;77;20928;-50
2021/10/11 08:06:23;;;;;;;28.52;10.03;;;;;;;12.31;49.42;101701.34;1818333;79;21398;-48
2021/10/11 08:08:49;;;;;;;20.65;8.98;;;;;;;12.52;48.39;101697.77;1786332;79;21002;-49
2021/10/11 08:11:16;;;;;;;23.65;9.33;;;;;;;12.66;47.43;101693.77;1818522;79;20901;-49
2021/10/11 08:13:43;;;;;;;24.18;9.43;;;;;;;12.82;46.89;101685.41;1817836;79;20940;-48
2021/10/11 08:16:09;;;;;;;25.02;8.73;;;;;;;12.91;46.45;101684.03;1817913;78;20947;-47
2021/10/11 08:18:35;;;;;;;23.30;8.80;;;;;;;13.04;45.72;101683.94;1812709;78;20975;-51
2021/10/11 08:21:04;;;;;;;20.60;9.45;;;;;;;13.22;45.47;101684.19;1817559;79;21116;-50
2021/10/11 08:23:36;;;;;;;20.97;8.28;;;;;;;13.41;45.10;101675.75;1812839;78;20963;-49
2021/10/11 08:26:02;;;;;;;21.17;9.00;;;;;;;13.66;45.55;101675.50;1817988;78;20908;-48
2021/10/11 08:28:29;;;;;;;26.02;8.70;;;;;;;13.92;44.85;101672.59;1817691;78;20916;-49
2021/10/11 08:30:56;;;;;;;24.92;9.60;;;;;;;14.17;43.63;101668.36;1817808;78;20904;-49
2021/10/11 08:33:22;;;;;;;22.50;9.38;;;;;;;14.36;43.25;101668.94;1817475;78;21044;-47
2021/10/11 08:35:49;;;;;;;28.87;9.50;;;;;;;14.60;42.14;101665.53;1817929;79;20873;-48
2021/10/11 08:38:15;;;;;;;30.48;9.48;;;;;;;14.80;42.22;101656.56;1817624;79;20877;-48
2021/10/11 08:40:42;;;;;;;28.00;10.95;;;;;;;15.01;41.46;101651.41;1817482;78;20904;-48
2021/10/11 08:43:08;;;;;;;27.73;11.40;;;;;;;15.14;39.39;101648.13;1817654;78;20924;-50
2021/10/11 08:45:35;;;;;;;22.15;10.38;;;;;;;15.15;40.43;101642.02;1817837;79;21182;-48
2021/10/11 08:48:01;;;;;;;22.32;9.40;;;;;;;15.27;38.78;101639.63;1817731;77;20975;-48
2021/10/11 08:50:28;;;;;;;18.57;8.80;;;;;;;15.29;38.56;101639.16;1817555;78;20963;-49
2021/10/11 08:52:54;;;;;;;20.72;8.75;;;;;;;15.33;38.79;101633.44;1818079;78;20911;-49
2021/10/11 08:55:21;;;;;;;27.15;9.15;;;;;;;15.37;38.02;101625.97;1812550;78;20828;-49
2021/10/11 08:57:47;;;;;;;26.20;9.63;;;;;;;15.42;37.85;101628.49;1812917;78;21679;-49
2021/10/11 09:00:18;;;;;;;24.15;9.45;;;;;;;15.50;38.07;101627.88;1817569;78;21366;-49
2021/10/11 09:02:57;;;;;;;18.90;10.13;;;;;;;15.74;37.61;101626.95;1829334;78;20836;-49
2021/10/11 09:05:37;;;;;;;16.32;9.75;;;;;;;15.96;36.79;101623.45;1798738;78;20915;-48
2021/10/11 09:08:06;;;;;;;21.90;9.38;;;;;;;16.03;36.90;101620.26;1832926;78;20864;-49
2021/10/11 09:10:59;;;;;;;27.55;9.83;;;;;;;16.22;36.54;101619.38;1832690;78;21771;-46
2021/10/11 09:13:38;;;;;;;26.55;10.98;;;;;;;16.30;36.65;101618.77;1832618;78;20970;-48
2021/10/11 09:16:16;;;;;;;26.63;10.73;;;;;;;16.44;35.01;101608.41;1832679;78;20899;-48
2021/10/11 09:18:46;;;;;;;29.52;11.18;;;;;;;16.53;35.62;101612.09;1832539;78;20836;-47
2021/10/11 09:21:10;;;;;;;21.17;10.45;;;;;;;16.63;35.46;101601.83;1832271;78;21473;-48
2021/10/11 09:23:37;;;;;;;22.75;10.90;;;;;;;16.77;34.34;101593.63;1805469;78;21803;-49
2021/10/11 09:26:16;;;;;;;20.75;10.63;;;;;;;16.85;33.80;101591.25;1832786;78;20891;-49
2021/10/11 09:28:55;;;;;;;33.10;10.10;;;;;;;16.92;35.21;101591.05;1832716;78;20895;-47
2021/10/11 09:31:36;;;;;;;24.18;11.43;;;;;;;17.03;33.92;101577.71;1832807;78;20955;-48
2021/10/11 09:34:02;;;;;;;31.25;11.33;;;;;;;17.16;33.66;101578.66;1832600;78;20947;-47
2021/10/11 09:36:30;;;;;;;48.05;27.10;;;;;;;17.17;33.37;101573.39;1833020;78;21132;-47
2021/10/11 09:38:58;;;;;;;52.73;26.57;;;;;;;17.12;32.82;101579.65;1804798;78;20939;-47
2021/10/11 09:41:24;;;;;;;23.15;12.58;;;;;;;17.04;33.66;101577.24;1832623;78;20816;-47
2021/10/11 09:43:51;;;;;;;26.10;10.78;;;;;;;17.18;34.63;101571.19;1832736;78;20865;-47
2021/10/11 09:46:19;;;;;;;26.77;11.63;;;;;;;17.40;33.34;101569.26;1832993;78;20966;-47
2021/10/11 09:48:52;;;;;;;19.10;10.58;;;;;;;17.49;32.51;101565.52;1832579;77;21140;-47
2021/10/11 09:51:21;;;;;;;20.05;9.88;;;;;;;17.47;33.08;101551.16;1804746;78;20888;-49
2021/10/11 09:53:49;;;;;;;24.35;10.58;;;;;;;17.36;33.15;101548.86;1832554;78;20895;-48
2021/10/11 09:56:16;;;;;;;22.73;10.25;;;;;;;17.32;34.06;101545.09;1832690;78;20935;-49
2021/10/11 09:58:42;;;;;;;17.00;10.55;;;;;;;17.51;33.58;101538.37;1832852;78;20864;-49
2021/10/11 10:01:09;;;;;;;49.23;10.80;;;;;;;17.64;32.44;101539.32;1832550;78;21066;-47
2021/10/11 10:03:36;;;;;;;20.15;11.12;;;;;;;17.61;32.80;101543.34;1817537;78;20857;-52
2021/10/11 10:06:06;;;;;;;17.55;11.85;;;;;;;17.72;32.93;101537.78;1817747;78;20959;-49
2021/10/11 10:08:33;;;;;;;18.60;10.15;;;;;;;17.84;32.36;101540.47;1817486;79;20869;-47
2021/10/11 10:11:00;;;;;;;13.43;8.88;;;;;;;17.92;32.90;101541.91;1786041;79;21054;-49
2021/10/11 10:13:29;;;;;;;18.87;9.33;;;;;;;18.03;32.53;101542.06;1817557;79;21141;-47
2021/10/11 10:16:07;;;;;;;17.62;8.38;;;;;;;18.01;32.38;101539.48;1817448;79;20896;-49
2021/10/11 10:18:42;;;;;;;14.87;8.83;;;;;;;18.08;32.45;101532.28;1815618;79;20908;-48
2021/10/11 10:21:08;;;;;;;19.00;11.08;;;;;;;18.31;32.58;101530.66;1817359;79;22183;-49
2021/10/11 10:23:41;;;;;;;18.00;11.20;;;;;;;18.47;32.03;101527.05;1817660;79;20967;-51
2021/10/11 10:26:11;;;;;;;17.35;9.40;;;;;;;18.54;31.42;101515.44;1817824;79;21287;-49
2021/10/11 10:28:47;;;;;;;13.03;9.40;;;;;;;18.45;31.08;101513.15;1817716;78;20975;-47
2021/10/11 10:31:35;;;;;;;14.93;8.85;;;;;;;18.45;31.70;101514.46;1817460;79;21469;-48
2021/10/11 10:34:19;;;;;;;17.55;9.38;;;;;;;18.45;31.94;101514.02;1817927;78;20912;-48
2021/10/11 10:37:06;;;;;;;16.80;9.15;;;;;;;18.50;31.79;101500.73;1817747;79;20857;-49
2021/10/11 10:39:49;;;;;;;14.30;9.05;;;;;;;18.64;32.88;101506.80;1818137;79;21752;-49
2021/10/11 10:42:26;;;;;;;13.93;8.55;;;;;;;18.90;31.52;101502.37;1817716;79;20888;-48
2021/10/11 10:44:53;;;;;;;22.27;11.30;;;;;;;19.04;31.80;101493.57;1817500;78;20869;-49
2021/10/11 10:47:33;;;;;;;16.17;8.15;;;;;;;19.18;31.49;101489.11;1817743;79;21254;-48
2021/10/11 10:50:01;;;;;;;15.03;8.25;;;;;;;19.18;30.74;101483.86;1817663;79;20955;-49
2021/10/11 10:52:28;;;;;;;16.20;7.55;;;;;;;19.15;31.11;101486.61;1817563;78;22321;-49
2021/10/11 10:54:57;;;;;;;17.12;9.35;;;;;;;19.16;32.29;101483.51;1817434;78;21415;-48
2021/10/11 10:57:25;;;;;;;15.98;8.30;;;;;;;19.30;31.05;101482.53;1817708;78;20837;-48
2021/10/11 10:59:56;;;;;;;13.55;7.97;;;;;;;19.43;31.49;101475.47;1817460;79;20967;-46
2021/10/11 11:02:23;;;;;;;18.50;7.45;;;;;;;19.60;31.46;101465.63;1821884;78;20868;-49
2021/10/11 11:05:00;;;;;;;15.85;8.15;;;;;;;19.72;31.13;101457.71;1830058;78;21108;-49
2021/10/11 11:07:30;;;;;;;9.38;6.55;;;;;;;19.66;31.47;101460.96;1802217;78;20896;-48
2021/10/11 11:09:59;;;;;;;11.53;7.78;;;;;;;19.78;31.23;101458.77;1829953;78;20872;-48
2021/10/11 11:12:36;;;;;;;19.98;9.03;;;;;;;19.74;29.79;101451.45;1829931;78;21377;-48
2021/10/11 11:15:11;;;;;;;20.23;8.75;;;;;;;19.48;29.94;101460.42;1829886;78;21480;-48
2021/10/11 11:17:43;;;;;;;13.15;6.60;;;;;;;19.14;31.26;101459.97;1830038;78;20943;-48
2021/10/11 11:20:20;;;;;;;18.62;7.03;;;;;;;19.14;31.54;101452.09;1830054;78;21458;-48
2021/10/11 11:22:47;;;;;;;12.70;8.08;;;;;;;19.20;31.23;101447.91;1829886;78;21317;-49
2021/10/11 11:25:13;;;;;;;14.35;8.03;;;;;;;19.13;31.29;101446.45;1830122;78;20907;-49
2021/10/11 11:27:45;;;;;;;11.70;7.28;;;;;;;19.12;31.78;101439.94;1830174;78;21438;-49